Time;durP1;ratioP1;P1;durP2;ratioP2;P2;SDS_P1;SDS_P2;PMS_P1;PMS_P2;Temp;Humidity;BMP_temperature;BMP_pressure;BME280_temperature;BME280_humidity;BME280_pressure;Samples;Min_cycle;Max_cycle;Signal;HPM_P1;HPM_P2
2022/05/19 00:01:20;;;;;;;47.67;33.42;;;;;;;21.01;67.53;101706.31;4970455;28;20023;-75
2022/05/19 00:03:45;;;;;;;46.30;32.15;;;;;;;21.00;67.42;101699.25;4971208;28;20383;-75
2022/05/19 00:06:11;;;;;;;46.85;32.45;;;;;;;20.99;67.21;101689.53;4971330;28;20383;-75
2022/05/19 00:08:37;;;;;;;45.28;32.13;;;;;;;20.95;67.35;101684.25;4970733;28;20030;-75
2022/05/19 00:11:07;;;;;;;45.80;32.10;;;;;;;20.89;67.94;101685.16;4971840;28;20089;-75
2022/05/19 00:13:33;;;;;;;45.13;32.33;;;;;;;20.84;67.83;101681.66;4970127;28;20113;-75
2022/05/19 00:15:59;;;;;;;45.97;32.75;;;;;;;20.83;68.11;101685.22;4971765;28;20027;-75
2022/05/19 00:18:25;;;;;;;44.65;32.03;;;;;;;20.80;68.22;101677.28;4971574;28;20122;-75
2022/05/19 00:20:51;;;;;;;45.40;32.38;;;;;;;20.77;68.26;101679.94;4971461;28;20401;-75
2022/05/19 00:23:17;;;;;;;47.80;33.50;;;;;;;20.74;68.41;101672.91;4971415;28;20027;-75
2022/05/19 00:25:42;;;;;;;43.70;32.35;;;;;;;20.71;68.05;101672.94;4969980;28;20031;-75
2022/05/19 00:28:08;;;;;;;51.47;33.28;;;;;;;20.75;68.11;101668.47;4969585;28;20030;-75
2022/05/19 00:30:35;;;;;;;51.25;34.70;;;;;;;20.72;68.70;101668.50;4971566;28;20049;-76
2022/05/19 00:33:01;;;;;;;49.92;34.85;;;;;;;20.68;68.37;101662.31;4971128;28;20027;-75
2022/05/19 00:35:26;;;;;;;49.05;33.85;;;;;;;20.64;68.90;101657.94;4970529;28;20031;-75
2022/05/19 00:37:51;;;;;;;48.45;33.50;;;;;;;20.63;69.07;101654.38;4970958;28;20023;-75
2022/05/19 00:40:19;;;;;;;47.88;34.28;;;;;;;20.60;68.93;101661.47;4971292;28;20097;-75
2022/05/19 00:42:44;;;;;;;49.47;35.30;;;;;;;20.57;68.70;101657.06;4971340;28;20137;-76
2022/05/19 00:45:19;;;;;;;48.58;34.63;;;;;;;20.56;69.00;101650.00;4971591;28;20529;-75
2022/05/19 00:47:50;;;;;;;47.63;34.10;;;;;;;20.52;68.58;101650.91;4958030;28;20459;-75
2022/05/19 00:50:38;;;;;;;46.97;34.17;;;;;;;20.50;68.41;101650.91;4974399;28;20065;-76
2022/05/19 00:53:14;;;;;;;48.78;35.30;;;;;;;20.44;69.26;101655.38;4974145;28;20055;-76
2022/05/19 00:55:50;;;;;;;50.95;34.85;;;;;;;20.41;69.21;101650.97;4973802;28;20027;-75
2022/05/19 00:58:34;;;;;;;53.00;35.10;;;;;;;20.35;69.17;101643.06;4975006;28;20094;-75
2022/05/19 01:01:00;;;;;;;49.40;34.30;;;;;;;20.31;69.55;101638.66;4974340;28;20502;-75
2022/05/19 01:03:28;;;;;;;52.80;37.20;;;;;;;20.24;69.80;101637.78;4974084;28;20041;-75
2022/05/19 01:05:59;;;;;;;46.65;34.78;;;;;;;20.23;70.00;101627.22;4974099;28;20066;-75
2022/05/19 01:08:34;;;;;;;50.08;35.20;;;;;;;20.19;70.05;101628.09;4973341;28;20031;-75
2022/05/19 01:11:01;;;;;;;48.22;34.13;;;;;;;20.20;69.93;101619.28;4974372;28;20033;-75
2022/05/19 01:13:30;;;;;;;49.20;34.08;;;;;;;20.14;69.82;101626.34;4974046;28;20059;-75
2022/05/19 01:15:56;;;;;;;47.30;33.63;;;;;;;20.16;69.52;101615.78;4974637;28;20046;-75
2022/05/19 01:18:24;;;;;;;50.67;34.55;;;;;;;20.12;70.02;101614.03;4974114;28;20074;-75
2022/05/19 01:20:49;;;;;;;47.13;33.92;;;;;;;20.07;69.62;101613.16;4974119;28;20101;-75
2022/05/19 01:23:37;;;;;;;49.40;34.92;;;;;;;20.14;69.42;101612.25;4974031;28;20118;-75
2022/05/19 01:26:27;;;;;;;52.33;34.88;;;;;;;20.08;69.77;101607.84;4966514;28;20039;-75
2022/05/19 01:28:53;;;;;;;53.65;35.75;;;;;;;20.00;70.56;101607.00;4973879;28;20031;-76
2022/05/19 01:31:56;;;;;;;49.22;35.13;;;;;;;20.03;69.79;101599.06;4974470;28;20157;-75
2022/05/19 01:34:26;;;;;;;49.78;35.00;;;;;;;19.96;70.31;101597.34;4972942;28;20042;-76
2022/05/19 01:36:52;;;;;;;52.00;35.33;;;;;;;19.94;70.67;101592.06;4973023;28;20082;-76
2022/05/19 01:39:21;;;;;;;51.05;36.38;;;;;;;19.89;70.72;101585.88;4974306;28;20035;-76
2022/05/19 01:42:14;;;;;;;49.78;36.05;;;;;;;19.94;70.65;101580.56;4973929;28;20034;-75
2022/05/19 01:45:16;;;;;;;50.45;35.65;;;;;;;19.91;70.00;101578.81;4973166;28;20552;-76
2022/05/19 01:47:51;;;;;;;51.03;35.22;;;;;;;19.79;70.54;101577.09;4974329;28;20031;-76
2022/05/19 01:50:30;;;;;;;55.95;36.38;;;;;;;19.74;71.05;101578.84;4973562;28;20041;-76
2022/05/19 01:53:25;;;;;;;54.08;36.15;;;;;;;19.78;70.61;101577.06;4974244;28;20041;-76
2022/05/19 01:56:07;;;;;;;51.35;36.35;;;;;;;19.72;70.67;101580.59;4967995;28;20576;-75
2022/05/19 01:58:44;;;;;;;52.10;36.58;;;;;;;19.72;71.06;101575.31;4973239;28;20039;-75
2022/05/19 02:01:10;;;;;;;51.80;35.88;;;;;;;19.69;70.99;101582.38;4973907;28;20027;-75
2022/05/19 02:04:05;;;;;;;50.40;35.55;;;;;;;19.72;70.58;101571.81;4972708;28;20031;-75
2022/05/19 02:06:44;;;;;;;50.00;35.13;;;;;;;19.70;70.71;101570.94;4973105;28;20057;-76
2022/05/19 02:09:18;;;;;;;50.30;34.30;;;;;;;19.64;71.24;101570.06;4972516;28;20511;-75
2022/05/19 02:11:52;;;;;;;53.25;36.22;;;;;;;19.61;71.53;101555.94;4973748;28;20018;-76
2022/05/19 02:14:24;;;;;;;50.25;35.72;;;;;;;19.61;71.58;101559.50;4972501;28;20109;-75
2022/05/19 02:16:50;;;;;;;51.35;35.03;;;;;;;19.61;71.83;101567.41;4973715;28;20502;-75
2022/05/19 02:19:21;;;;;;;49.20;34.35;;;;;;;19.58;71.68;101564.78;4972707;28;20092;-76
2022/05/19 02:21:47;;;;;;;47.80;34.00;;;;;;;19.57;71.97;101575.38;4973693;28;20050;-76
2022/05/19 02:24:17;;;;;;;48.03;34.75;;;;;;;19.53;71.95;101569.19;4972410;28;20427;-76
2022/05/19 02:26:42;;;;;;;49.50;35.05;;;;;;;19.52;72.36;101563.91;4972960;28;20030;-76
2022/05/19 02:29:12;;;;;;;46.95;34.05;;;;;;;19.46;73.02;101578.00;4972755;28;20031;-76
2022/05/19 02:31:44;;;;;;;48.03;34.33;;;;;;;19.44;72.93;101575.38;4972168;28;20089;-76
2022/05/19 02:34:10;;;;;;;47.65;34.72;;;;;;;19.43;73.33;101570.97;4973209;28;20110;-75
2022/05/19 02:36:35;;;;;;;49.22;34.13;;;;;;;19.47;73.07;101563.94;4971042;28;20057;-76
2022/05/19 02:39:01;;;;;;;47.28;34.80;;;;;;;19.43;73.62;101567.44;4971249;28;20039;-76
2022/05/19 02:41:26;;;;;;;48.80;33.65;;;;;;;19.47;73.39;101569.22;4973098;28;20033;-76
2022/05/19 02:43:51;;;;;;;52.75;33.92;;;;;;;19.43;73.87;101578.03;4972361;28;20121;-76
2022/05/19 02:46:16;;;;;;;44.38;32.75;;;;;;;19.47;73.68;101579.78;4973085;28;20069;-76
2022/05/19 02:48:42;;;;;;;44.95;32.78;;;;;;;19.46;74.14;101578.00;4972402;28;20041;-76
2022/05/19 02:51:07;;;;;;;47.63;33.35;;;;;;;19.45;74.51;101587.72;4972840;28;20026;-75
2022/05/19 02:53:32;;;;;;;46.58;32.60;;;;;;;19.45;74.44;101581.53;4971519;28;20038;-76
2022/05/19 02:55:58;;;;;;;45.67;32.97;;;;;;;19.48;74.45;101585.94;4972608;28;20029;-76
2022/05/19 02:58:23;;;;;;;45.22;33.67;;;;;;;19.48;74.75;101592.13;4971821;28;20101;-76
2022/05/19 03:00:50;;;;;;;42.72;31.45;;;;;;;19.50;74.88;101586.84;4971863;28;20036;-76
2022/05/19 03:03:16;;;;;;;40.88;31.40;;;;;;;19.51;74.37;101601.78;4961570;28;20035;-76
2022/05/19 03:05:41;;;;;;;44.78;31.55;;;;;;;19.52;74.69;101630.00;4955046;28;20018;-76
2022/05/19 03:08:08;;;;;;;38.65;31.05;;;;;;;19.51;75.01;101705.78;4971914;28;20074;-78
2022/05/19 03:10:36;;;;;;;50.55;34.03;;;;;;;19.58;74.24;101714.56;4971889;28;20031;-80
2022/05/19 03:13:02;;;;;;;51.22;36.83;;;;;;;19.63;74.31;101707.53;4972175;28;20049;-78
2022/05/19 03:15:28;;;;;;;49.08;35.63;;;;;;;19.62;74.63;101729.56;4971411;28;20553;-78
2022/05/19 03:17:53;;;;;;;42.17;32.78;;;;;;;19.68;73.61;101739.25;4971696;28;20062;-79
2022/05/19 03:20:19;;;;;;;40.42;31.67;;;;;;;19.73;73.25;101734.88;4959287;28;20033;-77
2022/05/19 03:22:44;;;;;;;41.05;31.63;;;;;;;19.80;72.95;101726.09;4972594;28;20113;-77
2022/05/19 03:25:10;;;;;;;42.15;30.80;;;;;;;19.84;72.38;101733.09;4969456;28;20027;-77
2022/05/19 03:27:37;;;;;;;36.45;30.52;;;;;;;19.90;72.38;101753.38;4971445;28;20394;-77
2022/05/19 03:30:05;;;;;;;39.63;31.23;;;;;;;19.94;72.92;101740.19;4972307;28;20086;-77
2022/05/19 03:32:30;;;;;;;41.40;32.28;;;;;;;19.92;72.98;101731.34;4971799;28;20038;-77
2022/05/19 03:34:55;;;;;;;40.95;32.00;;;;;;;19.96;72.62;101738.41;4971381;28;20038;-76
2022/05/19 03:37:21;;;;;;;39.42;30.70;;;;;;;19.92;72.80;101741.06;4972169;28;20055;-77
2022/05/19 03:39:46;;;;;;;40.78;32.30;;;;;;;19.94;73.05;101740.19;4970296;28;20086;-76
2022/05/19 03:42:11;;;;;;;40.35;31.20;;;;;;;19.93;72.96;101743.69;4972177;28;20019;-76
2022/05/19 03:44:37;;;;;;;42.00;32.28;;;;;;;19.91;73.17;101742.81;4970643;28;20034;-76
2022/05/19 03:47:03;;;;;;;40.47;31.10;;;;;;;19.93;72.85;101748.13;4972015;28;20022;-76
2022/05/19 03:49:28;;;;;;;40.50;31.20;;;;;;;19.93;73.10;101751.63;4971146;28;20043;-77
2022/05/19 03:51:54;;;;;;;40.25;31.58;;;;;;;19.93;73.19;101741.06;4971594;28;20026;-77
2022/05/19 03:54:20;;;;;;;41.10;32.55;;;;;;;19.95;72.56;101730.47;4971985;28;20093;-76
2022/05/19 03:56:45;;;;;;;36.75;31.38;;;;;;;19.95;72.83;101731.34;4953851;28;20034;-76
2022/05/19 03:59:10;;;;;;;39.35;30.77;;;;;;;19.94;73.24;101728.69;4954231;28;20026;-77
2022/05/19 04:01:36;;;;;;;39.17;28.67;;;;;;;19.94;73.15;101740.19;4972031;28;20019;-76
2022/05/19 04:04:02;;;;;;;37.92;31.02;;;;;;;19.92;73.32;101752.50;4971849;28;20086;-77
2022/05/19 04:06:27;;;;;;;38.55;31.77;;;;;;;19.95;72.77;101752.50;4971366;28;20025;-77
2022/05/19 04:08:52;;;;;;;41.13;30.73;;;;;;;19.94;73.32;101756.06;4972016;28;20038;-77
2022/05/19 04:11:18;;;;;;;38.80;31.55;;;;;;;19.93;73.36;101756.06;4971189;28;20035;-77
2022/05/19 04:13:44;;;;;;;39.90;32.20;;;;;;;19.91;73.61;101749.88;4971588;28;20085;-76
2022/05/19 04:16:10;;;;;;;39.45;32.35;;;;;;;19.87;73.96;101753.41;4970527;28;20066;-76
2022/05/19 04:18:35;;;;;;;39.92;32.38;;;;;;;19.88;73.51;101745.47;4970830;28;20035;-77
2022/05/19 04:21:01;;;;;;;38.65;31.85;;;;;;;19.85;74.10;101755.16;4971313;28;20062;-77
2022/05/19 04:23:27;;;;;;;39.75;31.70;;;;;;;19.85;73.93;101755.16;4970325;28;20035;-77
2022/05/19 04:25:55;;;;;;;45.38;31.33;;;;;;;19.85;74.45;101757.81;4970651;28;20445;-77
2022/05/19 04:28:20;;;;;;;45.15;33.03;;;;;;;19.86;74.47;101756.94;4953259;28;20030;-77
2022/05/19 04:30:45;;;;;;;43.80;32.47;;;;;;;19.82;74.27;101761.34;4970582;28;20085;-77
2022/05/19 04:33:11;;;;;;;39.20;32.05;;;;;;;19.79;74.81;101754.28;4970073;28;20030;-77
2022/05/19 04:35:37;;;;;;;37.55;31.83;;;;;;;19.82;74.58;101749.88;4970193;28;20121;-77
2022/05/19 04:38:08;;;;;;;36.55;30.02;;;;;;;19.79;74.99;101740.19;4971400;28;20109;-77
2022/05/19 04:40:39;;;;;;;35.58;30.83;;;;;;;19.78;75.42;101746.31;4970839;28;20029;-77
2022/05/19 04:43:06;;;;;;;37.70;32.30;;;;;;;19.79;75.23;101740.19;4966983;28;20066;-77
2022/05/19 04:45:32;;;;;;;36.25;31.45;;;;;;;19.78;75.21;101741.97;4969703;28;20030;-77
2022/05/19 04:47:58;;;;;;;41.67;31.52;;;;;;;19.77;75.56;101747.22;4970655;28;20110;-77
2022/05/19 04:50:23;;;;;;;39.55;33.22;;;;;;;19.78;75.47;101746.31;4970292;28;20114;-77
2022/05/19 04:52:48;;;;;;;40.63;31.67;;;;;;;19.78;75.25;101736.66;4971543;28;20101;-77
2022/05/19 04:55:13;;;;;;;42.60;32.25;;;;;;;19.79;75.55;101734.91;4970372;28;20031;-77
2022/05/19 04:57:42;;;;;;;37.42;30.90;;;;;;;19.79;75.77;101729.59;4970585;28;20030;-77
2022/05/19 05:00:09;;;;;;;35.80;29.00;;;;;;;19.79;75.47;101730.47;4971211;28;20033;-77
2022/05/19 05:02:35;;;;;;;33.67;26.63;;;;;;;19.84;75.27;101737.53;4970499;28;20402;-77
2022/05/19 05:05:00;;;;;;;31.08;25.98;;;;;;;19.83;75.17;101747.25;4970098;28;20102;-77
2022/05/19 05:07:25;;;;;;;30.77;24.17;;;;;;;19.87;74.68;101749.00;4970250;28;20494;-77
2022/05/19 05:09:51;;;;;;;30.40;24.17;;;;;;;19.88;74.84;101744.59;4970809;28;20114;-77
2022/05/19 05:12:16;;;;;;;28.23;24.05;;;;;;;19.89;74.91;101743.72;4971078;28;20501;-77
2022/05/19 05:14:41;;;;;;;28.05;23.10;;;;;;;19.89;74.89;101738.41;4970193;28;20046;-77
2022/05/19 05:17:07;;;;;;;28.00;22.67;;;;;;;19.89;75.69;101725.19;4970061;28;20312;-77
2022/05/19 05:19:32;;;;;;;30.38;23.40;;;;;;;19.87;75.64;101719.91;4962796;28;20560;-77
2022/05/19 05:21:59;;;;;;;27.80;23.08;;;;;;;19.86;75.92;101725.22;4970260;28;20481;-77
2022/05/19 05:24:25;;;;;;;28.80;23.00;;;;;;;19.86;75.34;101712.84;4971084;28;20019;-77
2022/05/19 05:26:50;;;;;;;25.48;22.33;;;;;;;19.87;76.01;101697.84;4970641;28;20077;-75
2022/05/19 05:29:15;;;;;;;27.13;22.17;;;;;;;19.84;77.18;101690.78;4968968;28;20031;-75
2022/05/19 05:31:41;;;;;;;28.40;22.63;;;;;;;19.83;77.08;101669.63;4972685;28;20111;-75
2022/05/19 05:34:06;;;;;;;30.60;24.63;;;;;;;19.85;77.97;101686.41;4974016;28;20273;-74
2022/05/19 05:36:31;;;;;;;27.88;23.98;;;;;;;19.85;77.95;101674.06;4974405;28;20023;-74
2022/05/19 05:38:57;;;;;;;30.30;25.52;;;;;;;19.79;78.72;101676.72;4972305;28;20041;-74
2022/05/19 05:41:23;;;;;;;30.95;25.48;;;;;;;19.78;78.61;101648.47;4973680;28;20030;-74
2022/05/19 05:43:49;;;;;;;29.45;24.33;;;;;;;19.80;77.62;101649.41;4973647;28;20023;-75
2022/05/19 05:46:15;;;;;;;28.77;25.10;;;;;;;19.78;78.27;101624.66;4974028;28;20027;-75
2022/05/19 05:48:45;;;;;;;30.70;24.45;;;;;;;19.77;78.58;101630.84;4973203;28;20026;-75
2022/05/19 05:51:12;;;;;;;30.20;24.20;;;;;;;19.74;78.58;101614.97;4974046;28;20042;-75
2022/05/19 05:53:39;;;;;;;28.38;22.55;;;;;;;19.70;79.01;101629.97;4968207;28;20245;-75
2022/05/19 05:56:06;;;;;;;24.48;21.83;;;;;;;19.71;79.11;101642.31;4967380;28;20054;-74
2022/05/19 05:58:31;;;;;;;26.60;22.10;;;;;;;19.70;79.29;101639.69;4973790;28;20022;-74
2022/05/19 06:00:57;;;;;;;28.95;21.08;;;;;;;19.72;78.80;101637.91;4970720;28;20034;-74
2022/05/19 06:03:23;;;;;;;25.80;20.83;;;;;;;19.71;79.60;101629.09;4972398;28;20023;-75
2022/05/19 06:05:49;;;;;;;24.45;20.27;;;;;;;19.72;79.22;101619.41;4973301;28;20027;-75
2022/05/19 06:08:15;;;;;;;23.92;19.83;;;;;;;19.71;79.42;101609.69;4973072;28;20069;-75
2022/05/19 06:10:40;;;;;;;26.45;21.15;;;;;;;19.73;78.84;101619.38;4973516;28;20501;-75
2022/05/19 06:13:06;;;;;;;28.98;23.38;;;;;;;19.70;79.86;101640.56;4973764;28;20058;-75
2022/05/19 06:15:32;;;;;;;25.13;22.40;;;;;;;19.72;79.93;101651.13;4973337;28;20525;-75
2022/05/19 06:17:58;;;;;;;30.35;24.90;;;;;;;19.73;79.90;101643.19;4955702;28;20023;-75
2022/05/19 06:20:24;;;;;;;27.73;23.65;;;;;;;19.74;80.61;101649.34;4981451;28;20117;-75
2022/05/19 06:23:03;;;;;;;28.40;24.85;;;;;;;19.74;80.20;101650.25;4975640;28;20029;-75
2022/05/19 06:25:29;;;;;;;27.15;23.60;;;;;;;19.77;80.64;101637.00;4968874;28;20019;-75
2022/05/19 06:27:56;;;;;;;31.02;25.05;;;;;;;19.80;81.08;101636.16;4971178;28;20376;-75
2022/05/19 06:30:22;;;;;;;28.02;25.00;;;;;;;19.82;80.98;101629.09;4971597;28;20118;-75
2022/05/19 06:32:48;;;;;;;30.52;26.35;;;;;;;19.83;80.22;101624.69;4955481;28;20054;-75
2022/05/19 06:35:20;;;;;;;27.15;24.17;;;;;;;19.86;80.65;101628.22;4973199;28;20069;-75
2022/05/19 06:37:46;;;;;;;29.50;25.90;;;;;;;19.90;80.82;101626.44;4973136;28;20059;-75
2022/05/19 06:40:15;;;;;;;29.67;26.10;;;;;;;19.90;81.11;101627.31;4972433;28;20506;-75
2022/05/19 06:42:40;;;;;;;32.35;27.80;;;;;;;19.94;80.97;101634.38;4973098;28;20093;-75
2022/05/19 06:45:06;;;;;;;31.50;27.30;;;;;;;19.96;80.99;101631.72;4972445;28;20097;-75
2022/05/19 06:47:32;;;;;;;27.52;24.55;;;;;;;20.01;79.04;101626.41;4972674;28;20022;-75
2022/05/19 06:49:58;;;;;;;31.90;27.92;;;;;;;20.01;80.23;101626.41;4971573;28;20031;-75
2022/05/19 06:52:29;;;;;;;31.50;28.13;;;;;;;20.02;79.24;101609.66;4972572;28;20085;-75
2022/05/19 06:54:56;;;;;;;33.33;29.83;;;;;;;20.00;80.26;101612.28;4973014;28;20473;-75
2022/05/19 06:57:24;;;;;;;32.20;28.50;;;;;;;20.01;80.13;101619.34;4964907;28;20026;-75
2022/05/19 06:59:51;;;;;;;32.63;28.35;;;;;;;20.04;80.62;101626.41;4971793;28;20027;-75
2022/05/19 07:02:17;;;;;;;35.58;29.85;;;;;;;20.06;81.28;101622.88;4970248;28;20122;-75
2022/05/19 07:04:43;;;;;;;33.80;30.17;;;;;;;20.07;81.67;101623.75;4972192;28;20031;-75
2022/05/19 07:07:09;;;;;;;35.13;31.27;;;;;;;20.10;81.59;101627.28;4972152;28;20385;-75
2022/05/19 07:09:35;;;;;;;34.10;30.13;;;;;;;20.11;80.77;101621.06;4970897;28;20026;-75
2022/05/19 07:12:00;;;;;;;33.92;29.85;;;;;;;20.10;80.83;101614.03;4958430;28;20482;-75
2022/05/19 07:14:27;;;;;;;33.70;30.13;;;;;;;20.13;80.62;101613.13;4970745;28;20047;-75
2022/05/19 07:16:53;;;;;;;33.55;29.92;;;;;;;20.15;81.12;101608.72;4969295;28;20031;-75
2022/05/19 07:22:07;;;;;;;31.98;28.40;;;;;;;20.20;80.10;101601.63;4966003;28;20042;-75
2022/05/19 07:24:33;;;;;;;32.60;27.20;;;;;;;20.24;78.93;101607.81;4968328;28;21401;-75
2022/05/19 07:26:59;;;;;;;35.40;29.90;;;;;;;20.24;80.05;101600.72;4968810;28;20026;-75
2022/05/19 07:29:26;;;;;;;35.53;29.75;;;;;;;20.26;80.19;101598.97;4947707;28;20027;-75
2022/05/19 07:31:53;;;;;;;31.73;28.48;;;;;;;20.31;80.19;101589.22;4962279;28;20038;-75
2022/05/19 07:34:22;;;;;;;31.77;28.02;;;;;;;20.35;79.89;101581.28;4965379;28;20169;-75
2022/05/19 07:36:48;;;;;;;24.52;21.88;;;;;;;20.40;77.38;101590.09;4965116;28;20035;-75
2022/05/19 07:39:14;;;;;;;35.20;31.08;;;;;;;20.41;79.50;101600.66;4965256;28;20027;-75
2022/05/19 07:41:39;;;;;;;37.10;29.88;;;;;;;20.47;79.72;101615.63;4964652;28;20482;-75
2022/05/19 07:44:07;;;;;;;31.42;26.75;;;;;;;20.51;78.37;101620.03;4968985;28;20038;-75
2022/05/19 07:46:34;;;;;;;30.60;27.23;;;;;;;20.57;79.20;101619.13;4961633;28;20031;-75
2022/05/19 07:48:59;;;;;;;29.92;26.38;;;;;;;20.63;78.82;101619.09;4964856;28;20035;-75
2022/05/19 07:51:33;;;;;;;32.42;26.52;;;;;;;20.67;78.27;101628.81;4964562;28;20031;-75
2022/05/19 07:53:59;;;;;;;29.70;26.38;;;;;;;20.72;78.63;101619.03;4962364;28;20027;-74
2022/05/19 07:56:24;;;;;;;32.35;27.38;;;;;;;20.77;75.45;101619.00;4964729;28;20148;-75
2022/05/19 07:58:50;;;;;;;33.95;28.13;;;;;;;20.82;75.86;101619.88;4964479;28;20026;-75
2022/05/19 08:01:16;;;;;;;32.55;28.20;;;;;;;20.89;77.61;101618.94;4963671;28;20062;-75
2022/05/19 08:03:42;;;;;;;33.72;28.38;;;;;;;20.96;76.66;101617.16;4963380;28;20117;-75
2022/05/19 08:06:10;;;;;;;33.67;28.80;;;;;;;21.05;77.57;101605.59;4968136;28;20561;-75
2022/05/19 08:08:37;;;;;;;31.83;27.35;;;;;;;21.14;76.28;101609.03;4970507;28;20045;-76
2022/05/19 08:11:02;;;;;;;31.73;25.63;;;;;;;21.23;74.38;101608.06;4968723;28;20041;-76
2022/05/19 08:16:12;;;;;;;29.48;25.33;;;;;;;21.37;74.63;101603.53;4967058;28;20059;-79
2022/05/19 08:18:37;;;;;;;27.60;23.45;;;;;;;21.43;72.65;101607.91;4967752;28;20027;-78
2022/05/19 08:21:05;;;;;;;30.10;23.48;;;;;;;21.51;72.51;101615.84;4968999;28;20019;-79
2022/05/19 08:23:37;;;;;;;29.40;23.27;;;;;;;21.60;72.52;101612.22;4968654;28;20503;-79
2022/05/19 08:26:04;;;;;;;28.23;23.95;;;;;;;21.68;73.11;101610.34;4969821;28;20061;-79
2022/05/19 08:28:30;;;;;;;27.10;22.52;;;;;;;21.76;71.77;101611.16;4953443;28;20563;-79
2022/05/19 08:31:05;;;;;;;24.73;21.80;;;;;;;21.84;71.72;101603.09;4967097;28;20092;-77
2022/05/19 08:33:31;;;;;;;25.42;22.38;;;;;;;21.91;72.10;101612.75;4966625;28;20081;-79
2022/05/19 08:35:56;;;;;;;22.52;19.90;;;;;;;21.98;70.40;101614.44;4967911;28;20062;-79
2022/05/19 08:38:22;;;;;;;26.20;19.77;;;;;;;22.04;70.60;101611.72;4966229;28;20057;-78
2022/05/19 08:40:52;;;;;;;21.73;17.08;;;;;;;22.14;70.25;101601.84;4967569;28;20122;-78
2022/05/19 08:43:23;;;;;;;19.05;15.60;;;;;;;22.20;69.35;101600.91;4964346;28;20089;-77
2022/05/19 08:45:53;;;;;;;19.73;16.23;;;;;;;22.31;69.02;101598.13;4963437;28;20022;-76
2022/05/19 08:48:22;;;;;;;20.20;15.63;;;;;;;22.38;69.92;101598.03;4965033;28;20556;-75
2022/05/19 08:50:56;;;;;;;19.42;15.18;;;;;;;22.42;67.26;101595.34;4966015;28;20039;-75
2022/05/19 08:53:24;;;;;;;18.13;13.52;;;;;;;22.53;66.54;101588.09;4959932;28;20402;-75
2022/05/19 08:55:54;;;;;;;19.27;13.68;;;;;;;22.62;67.20;101580.00;4953772;28;20089;-79
2022/05/19 08:58:48;;;;;;;17.38;12.52;;;;;;;22.68;66.79;101577.25;4964529;28;20023;-76
2022/05/19 09:01:29;;;;;;;18.48;13.43;;;;;;;22.76;66.08;101574.47;4966999;28;20026;-79
2022/05/19 09:03:55;;;;;;;15.93;12.20;;;;;;;22.85;65.38;101570.81;4969101;28;20031;-79
2022/05/19 09:06:34;;;;;;;15.75;11.75;;;;;;;22.87;64.90;101571.63;4970067;28;20033;-81
2022/05/19 09:09:47;;;;;;;15.85;13.02;;;;;;;22.92;64.74;101575.13;4972059;28;20035;-80
2022/05/19 09:12:19;;;;;;;17.13;12.50;;;;;;;22.98;64.00;101569.69;4937861;28;20035;-79
2022/05/19 09:14:45;;;;;;;17.08;12.98;;;;;;;23.05;63.61;101575.78;4973983;28;20077;-80
2022/05/19 09:17:12;;;;;;;16.35;12.20;;;;;;;23.07;63.65;101572.22;4968335;28;20118;-76
2022/05/19 09:19:48;;;;;;;16.00;13.40;;;;;;;23.19;63.54;101562.31;4971884;28;20037;-77
2022/05/19 09:22:17;;;;;;;19.50;13.80;;;;;;;23.31;62.82;101566.53;4969429;28;20037;-77
2022/05/19 09:24:46;;;;;;;15.88;13.50;;;;;;;23.36;63.34;101562.88;4971697;28;20029;-78
2022/05/19 09:27:12;;;;;;;17.63;13.60;;;;;;;23.42;63.42;101562.75;4966398;28;20027;-80
2022/05/19 09:29:48;;;;;;;16.98;13.90;;;;;;;23.44;63.62;101552.97;4955565;28;20054;-77
2022/05/19 09:32:34;;;;;;;19.25;14.25;;;;;;;23.52;64.11;101558.16;4973375;28;20093;-76
2022/05/19 09:35:06;;;;;;;18.08;13.95;;;;;;;23.52;61.79;101560.81;4968556;28;20121;-76
2022/05/19 09:37:45;;;;;;;17.88;15.00;;;;;;;23.54;62.28;101563.44;4971509;28;20426;-76
2022/05/19 09:40:10;;;;;;;18.35;14.35;;;;;;;23.55;62.50;101557.19;4972558;28;20034;-72
2022/05/19 09:42:59;;;;;;;19.02;13.02;;;;;;;23.56;62.73;101566.94;4974318;28;20508;-73
2022/05/19 09:45:25;;;;;;;;;;;;;;;23.57;64.04;101563.38;4974117;28;20027;-73
2022/05/19 09:47:57;;;;;;;16.65;12.25;;;;;;;23.52;63.32;101559.91;4973462;28;19929;-73
2022/05/19 09:50:29;;;;;;;16.35;13.10;;;;;;;23.56;62.13;101561.63;4974253;28;20022;-73
2022/05/19 09:53:04;;;;;;;17.33;12.30;;;;;;;23.59;64.14;101562.44;4973603;28;20034;-73
2022/05/19 09:55:30;;;;;;;15.30;10.77;;;;;;;23.64;65.24;101559.69;4974117;28;20035;-73
2022/05/19 09:57:57;;;;;;;15.35;11.65;;;;;;;23.64;64.38;101554.38;4972055;28;20039;-73
2022/05/19 10:00:32;;;;;;;14.73;13.02;;;;;;;23.68;63.32;101548.09;4972936;28;20038;-73
2022/05/19 10:02:59;;;;;;;14.90;11.90;;;;;;;23.69;63.98;101547.16;4973952;28;20516;-73
2022/05/19 10:05:31;;;;;;;14.15;11.77;;;;;;;23.70;65.07;101540.94;4973267;28;20117;-73
2022/05/19 10:08:05;;;;;;;16.15;11.95;;;;;;;23.76;62.92;101530.16;4972313;28;20042;-75
2022/05/19 10:10:35;;;;;;;15.63;11.55;;;;;;;23.79;63.69;101521.25;4971094;28;20084;-76
2022/05/19 10:13:10;;;;;;;15.18;11.88;;;;;;;23.89;65.14;101517.50;4963111;28;20114;-75
2022/05/19 10:15:54;;;;;;;13.82;11.27;;;;;;;23.96;65.54;101496.97;4972394;28;20051;-74
2022/05/19 10:18:57;;;;;;;13.18;11.77;;;;;;;24.03;64.14;101492.38;4964219;28;20121;-74
2022/05/19 10:21:46;;;;;;;15.35;10.75;;;;;;;24.12;63.70;101482.41;4969663;28;20035;-76
2022/05/19 10:24:27;;;;;;;15.10;10.35;;;;;;;24.25;61.73;101488.31;4972000;28;20034;-76
2022/05/19 10:33:22;;;;;;;65.75;13.57;;;;;;;24.38;58.32;101491.56;4972257;28;20179;-76
2022/05/19 10:35:56;;;;;;;11.23;8.95;;;;;;;24.47;54.39;101486.00;4970197;28;20027;-75
2022/05/19 10:38:27;;;;;;;12.10;9.38;;;;;;;24.57;54.10;101484.00;4965793;28;20019;-75
2022/05/19 10:41:41;;;;;;;14.18;8.88;;;;;;;24.63;54.91;101491.88;4970760;28;20039;-79
2022/05/19 10:44:32;;;;;;;11.75;8.18;;;;;;;24.70;55.16;101497.06;4972008;28;20390;-76
2022/05/19 10:47:02;;;;;;;13.35;9.27;;;;;;;24.70;54.96;101497.06;4971416;28;20027;-76
2022/05/19 10:49:52;;;;;;;11.68;9.15;;;;;;;24.77;55.82;101501.34;4972399;28;20101;-76
2022/05/19 10:52:55;;;;;;;12.25;9.10;;;;;;;24.79;54.94;101495.03;4972922;28;20042;-76
2022/05/19 10:55:58;;;;;;;11.38;9.30;;;;;;;24.83;54.21;101488.72;4972108;28;20481;-75
2022/05/19 10:58:51;;;;;;;15.73;9.90;;;;;;;24.85;52.93;101494.00;4968496;28;20031;-75
2022/05/19 11:01:35;;;;;;;11.73;8.73;;;;;;;24.86;53.46;101486.91;4971226;28;20050;-74
2022/05/19 11:04:38;;;;;;;10.80;8.45;;;;;;;24.91;54.21;101490.31;4971779;28;20650;-75
2022/05/19 11:07:31;;;;;;;11.75;8.38;;;;;;;24.96;55.76;101491.06;4955119;28;20174;-75
2022/05/19 11:10:44;;;;;;;11.95;9.20;;;;;;;24.99;54.35;101491.84;4971460;28;20033;-75
2022/05/19 11:13:42;;;;;;;12.82;9.13;;;;;;;24.95;57.22;101481.31;4972813;28;20093;-76
2022/05/19 11:16:45;;;;;;;12.35;9.35;;;;;;;24.90;53.81;101485.91;4956648;28;20528;-76
2022/05/19 11:19:26;;;;;;;12.07;9.65;;;;;;;24.83;53.92;101482.50;4958538;28;20096;-78
2022/05/19 11:21:57;;;;;;;11.20;9.10;;;;;;;24.78;55.85;101490.63;4960162;28;20059;-78
2022/05/19 11:26:23;;;;;;;10.82;9.20;;;;;;;24.75;55.95;101490.72;4972309;28;20299;-76
2022/05/19 11:27:33;;;;;;;11.55;9.60;;;;;;;24.66;58.38;101493.59;4971266;28;20034;-76
2022/05/19 11:30:06;;;;;;;12.38;9.82;;;;;;;24.59;57.99;101503.56;4971786;28;20046;-76
2022/05/19 11:32:36;;;;;;;16.15;9.75;;;;;;;24.56;59.53;101519.53;4968917;28;20057;-76
2022/05/19 11:35:15;;;;;;;16.67;9.88;;;;;;;24.54;58.51;101520.53;4971329;28;20031;-76
2022/05/19 11:38:03;;;;;;;13.35;9.45;;;;;;;24.48;59.15;101527.72;4971780;28;20508;-76